sensor_id;sensor_type;location;lat;lon;timestamp;pressure;altitude;pressure_sealevel;temperature;humidity
45864;BME280;31579;52.354;16.974;2023-02-01T00:00:03;479.7;;;-146.1;100.0
45864;BME280;31579;52.354;16.974;2023-02-01T00:01:08;473.9;;;-146.1;100.0
45864;BME280;31579;52.354;16.974;2023-02-01T00:02:09;499.9;;;-146.1;100.0
45864;BME280;31579;52.354;16.974;2023-02-01T00:03:12;494.8;;;-146.1;100.0
45864;BME280;31579;52.354;16.974;2023-02-01T00:04:15;491.1;;;-146.1;100.0
45864;BME280;31579;52.354;16.974;2023-02-01T00:05:18;490.0;;;-146.1;100.0
45864;BME280;31579;52.354;16.974;2023-02-01T00:06:21;489.2;;;-146.1;100.0
45864;BME280;31579;52.354;16.974;2023-02-01T00:07:24;486.7;;;-146.1;100.0
45864;BME280;31579;52.354;16.974;2023-02-01T00:08:28;486.7;;;-146.1;100.0
45864;BME280;31579;52.354;16.974;2023-02-01T00:09:31;485.7;;;-146.1;100.0
45864;BME280;31579;52.354;16.974;2023-02-01T00:10:34;484.4;;;-146.1;100.0
45864;BME280;31579;52.354;16.974;2023-02-01T00:11:37;481.9;;;-146.1;100.0
45864;BME280;31579;52.354;16.974;2023-02-01T00:12:40;482.3;;;-146.1;100.0
45864;BME280;31579;52.354;16.974;2023-02-01T00:13:43;481.3;;;-146.1;100.0
45864;BME280;31579;52.354;16.974;2023-02-01T00:14:46;471.3;;;-146.1;100.0
45864;BME280;31579;52.354;16.974;2023-02-01T00:15:49;455.9;;;-146.1;100.0
45864;BME280;31579;52.354;16.974;2023-02-01T00:16:52;442.9;;;-146.1;100.0
45864;BME280;31579;52.354;16.974;2023-02-01T00:17:55;431.3;;;-146.1;100.0
45864;BME280;31579;52.354;16.974;2023-02-01T00:18:59;422.9;;;-146.1;100.0
45864;BME280;31579;52.354;16.974;2023-02-01T00:20:10;465.9;;;-146.1;100.0
45864;BME280;31579;52.354;16.974;2023-02-01T00:21:14;275.3;;;-146.1;100.0
45864;BME280;31579;52.354;16.974;2023-02-01T00:22:17;253.3;;;-146.1;100.0
45864;BME280;31579;52.354;16.974;2023-02-01T00:23:20;258.7;;;-146.1;100.0
45864;BME280;31579;52.354;16.974;2023-02-01T00:24:23;268.9;;;-146.1;100.0
45864;BME280;31579;52.354;16.974;2023-02-01T00:25:26;280.1;;;-146.1;100.0
45864;BME280;31579;52.354;16.974;2023-02-01T00:27:32;304.6;;;-146.1;100.0
45864;BME280;31579;52.354;16.974;2023-02-01T00:28:35;314.7;;;-146.1;100.0
45864;BME280;31579;52.354;16.974;2023-02-01T00:29:38;322.4;;;-146.1;100.0
45864;BME280;31579;52.354;16.974;2023-02-01T00:30:41;330.8;;;-146.1;100.0
45864;BME280;31579;52.354;16.974;2023-02-01T00:31:44;336.8;;;-146.1;100.0
45864;BME280;31579;52.354;16.974;2023-02-01T00:32:47;343.4;;;-146.1;100.0
45864;BME280;31579;52.354;16.974;2023-02-01T00:33:50;348.5;;;-146.1;100.0
45864;BME280;31579;52.354;16.974;2023-02-01T00:34:53;354.1;;;-146.1;100.0
45864;BME280;31579;52.354;16.974;2023-02-01T00:35:59;360.7;;;-146.1;100.0
45864;BME280;31579;52.354;16.974;2023-02-01T00:36:59;366.8;;;-146.1;100.0
45864;BME280;31579;52.354;16.974;2023-02-01T00:38:01;463.8;;;-146.1;100.0
45864;BME280;31579;52.354;16.974;2023-02-01T00:39:05;439.7;;;-146.1;100.0
45864;BME280;31579;52.354;16.974;2023-02-01T00:40:08;431.6;;;-146.1;100.0
45864;BME280;31579;52.354;16.974;2023-02-01T00:41:12;427.7;;;-146.1;100.0
45864;BME280;31579;52.354;16.974;2023-02-01T00:42:14;423.5;;;-146.1;100.0
45864;BME280;31579;52.354;16.974;2023-02-01T00:43:17;420.9;;;-146.1;100.0
45864;BME280;31579;52.354;16.974;2023-02-01T00:44:21;422.9;;;-146.1;100.0
45864;BME280;31579;52.354;16.974;2023-02-01T00:45:24;414.9;;;-146.1;100.0
45864;BME280;31579;52.354;16.974;2023-02-01T00:46:27;413.1;;;-146.1;100.0
45864;BME280;31579;52.354;16.974;2023-02-01T00:47:30;411.2;;;-146.1;100.0
45864;BME280;31579;52.354;16.974;2023-02-01T00:48:33;411.7;;;-146.1;100.0
45864;BME280;31579;52.354;16.974;2023-02-01T00:49:36;411.8;;;-146.1;100.0
45864;BME280;31579;52.354;16.974;2023-02-01T00:51:42;410.2;;;-146.1;100.0
45864;BME280;31579;52.354;16.974;2023-02-01T00:52:45;408.5;;;-146.1;100.0
45864;BME280;31579;52.354;16.974;2023-02-01T00:53:48;406.9;;;-146.1;100.0
45864;BME280;31579;52.354;16.974;2023-02-01T00:54:51;407.2;;;-146.1;100.0
45864;BME280;31579;52.354;16.974;2023-02-01T00:55:54;407.8;;;-146.1;100.0
45864;BME280;31579;52.354;16.974;2023-02-01T00:56:57;407.4;;;-146.1;100.0
45864;BME280;31579;52.354;16.974;2023-02-01T00:58:00;407.9;;;-146.1;100.0
45864;BME280;31579;52.354;16.974;2023-02-01T00:59:03;410.1;;;-146.1;100.0
45864;BME280;31579;52.354;16.974;2023-02-01T01:00:06;410.5;;;-146.1;100.0
45864;BME280;31579;52.354;16.974;2023-02-01T01:02:12;414.9;;;-146.1;100.0
45864;BME280;31579;52.354;16.974;2023-02-01T01:03:15;415.9;;;-146.1;100.0
45864;BME280;31579;52.354;16.974;2023-02-01T01:04:18;417.2;;;-146.1;100.0
45864;BME280;31579;52.354;16.974;2023-02-01T01:05:21;410.4;;;-146.1;100.0
45864;BME280;31579;52.354;16.974;2023-02-01T01:06:25;411.4;;;-146.1;100.0
45864;BME280;31579;52.354;16.974;2023-02-01T01:07:27;413.6;;;-146.1;100.0
45864;BME280;31579;52.354;16.974;2023-02-01T01:08:30;414.5;;;-146.1;100.0
45864;BME280;31579;52.354;16.974;2023-02-01T01:09:33;416.7;;;-146.1;100.0
45864;BME280;31579;52.354;16.974;2023-02-01T01:10:36;417.1;;;-146.1;100.0
45864;BME280;31579;52.354;16.974;2023-02-01T01:11:39;418.9;;;-146.1;100.0
45864;BME280;31579;52.354;16.974;2023-02-01T01:12:42;419.5;;;-146.1;100.0
45864;BME280;31579;52.354;16.974;2023-02-01T01:13:46;420.4;;;-146.1;100.0
45864;BME280;31579;52.354;16.974;2023-02-01T01:14:48;422.4;;;-146.1;100.0
45864;BME280;31579;52.354;16.974;2023-02-01T01:15:51;424.4;;;-146.1;100.0
45864;BME280;31579;52.354;16.974;2023-02-01T01:17:01;422.1;;;-146.1;100.0
45864;BME280;31579;52.354;16.974;2023-02-01T01:18:05;278.2;;;-146.1;100.0
45864;BME280;31579;52.354;16.974;2023-02-01T01:19:08;295.0;;;-146.1;100.0
45864;BME280;31579;52.354;16.974;2023-02-01T01:20:11;314.4;;;-146.1;100.0
45864;BME280;31579;52.354;16.974;2023-02-01T01:21:14;331.5;;;-146.1;100.0
45864;BME280;31579;52.354;16.974;2023-02-01T01:22:17;346.0;;;-146.1;100.0
45864;BME280;31579;52.354;16.974;2023-02-01T01:23:20;357.8;;;-146.1;100.0
45864;BME280;31579;52.354;16.974;2023-02-01T01:24:23;369.8;;;-146.1;100.0
45864;BME280;31579;52.354;16.974;2023-02-01T01:25:27;379.6;;;-146.1;100.0
45864;BME280;31579;52.354;16.974;2023-02-01T01:26:30;389.0;;;-146.1;100.0
45864;BME280;31579;52.354;16.974;2023-02-01T01:27:33;399.0;;;-146.1;100.0
45864;BME280;31579;52.354;16.974;2023-02-01T01:28:36;407.7;;;-146.1;100.0
45864;BME280;31579;52.354;16.974;2023-02-01T01:29:39;415.3;;;-146.1;100.0
45864;BME280;31579;52.354;16.974;2023-02-01T01:30:42;417.0;;;-146.1;100.0
45864;BME280;31579;52.354;16.974;2023-02-01T01:31:45;422.8;;;-146.1;100.0
45864;BME280;31579;52.354;16.974;2023-02-01T01:32:48;427.8;;;-146.1;100.0
45864;BME280;31579;52.354;16.974;2023-02-01T01:33:52;431.9;;;-146.1;100.0
45864;BME280;31579;52.354;16.974;2023-02-01T01:34:54;435.1;;;-146.1;100.0
45864;BME280;31579;52.354;16.974;2023-02-01T01:35:56;488.1;;;-146.1;100.0
45864;BME280;31579;52.354;16.974;2023-02-01T01:36:58;499.2;;;-146.1;100.0
45864;BME280;31579;52.354;16.974;2023-02-01T01:38:00;502.1;;;-146.1;100.0
45864;BME280;31579;52.354;16.974;2023-02-01T01:39:04;497.6;;;-146.1;100.0
45864;BME280;31579;52.354;16.974;2023-02-01T01:40:08;494.5;;;-146.1;100.0
45864;BME280;31579;52.354;16.974;2023-02-01T01:41:12;492.1;;;-146.1;100.0
45864;BME280;31579;52.354;16.974;2023-02-01T01:42:13;488.4;;;-146.1;100.0
45864;BME280;31579;52.354;16.974;2023-02-01T01:43:18;486.2;;;-146.1;100.0
45864;BME280;31579;52.354;16.974;2023-02-01T01:45:24;481.9;;;-146.1;100.0
45864;BME280;31579;52.354;16.974;2023-02-01T01:47:29;478.3;;;-146.1;100.0
45864;BME280;31579;52.354;16.974;2023-02-01T01:48:31;477.5;;;-146.1;100.0
45864;BME280;31579;52.354;16.974;2023-02-01T01:49:34;476.8;;;-146.1;100.0
45864;BME280;31579;52.354;16.974;2023-02-01T01:50:38;476.4;;;-146.1;100.0
45864;BME280;31579;52.354;16.974;2023-02-01T01:51:41;476.1;;;-146.1;100.0
45864;BME280;31579;52.354;16.974;2023-02-01T01:52:43;475.8;;;-146.1;100.0
45864;BME280;31579;52.354;16.974;2023-02-01T01:53:48;475.4;;;-146.1;100.0
45864;BME280;31579;52.354;16.974;2023-02-01T01:54:50;475.3;;;-146.1;100.0
45864;BME280;31579;52.354;16.974;2023-02-01T01:55:52;474.6;;;-146.1;100.0
45864;BME280;31579;52.354;16.974;2023-02-01T01:56:56;475.0;;;-146.1;100.0
45864;BME280;31579;52.354;16.974;2023-02-01T01:58:00;474.6;;;-146.1;100.0
45864;BME280;31579;52.354;16.974;2023-02-01T01:59:08;349.7;;;-146.1;100.0
45864;BME280;31579;52.354;16.974;2023-02-01T02:00:12;359.8;;;-146.1;100.0
45864;BME280;31579;52.354;16.974;2023-02-01T02:01:14;378.8;;;-146.1;100.0
45864;BME280;31579;52.354;16.974;2023-02-01T02:02:17;399.8;;;-146.1;100.0
45864;BME280;31579;52.354;16.974;2023-02-01T02:04:24;429.0;;;-146.1;100.0
45864;BME280;31579;52.354;16.974;2023-02-01T02:05:27;433.9;;;-146.1;100.0
45864;BME280;31579;52.354;16.974;2023-02-01T02:06:34;443.9;;;-146.1;100.0
45864;BME280;31579;52.354;16.974;2023-02-01T02:07:36;445.5;;;-146.1;100.0
45864;BME280;31579;52.354;16.974;2023-02-01T02:08:37;357.9;;;-146.1;100.0
45864;BME280;31579;52.354;16.974;2023-02-01T02:09:40;395.9;;;-146.1;100.0
45864;BME280;31579;52.354;16.974;2023-02-01T02:10:43;413.7;;;-146.1;100.0
45864;BME280;31579;52.354;16.974;2023-02-01T02:11:46;428.9;;;-146.1;100.0
45864;BME280;31579;52.354;16.974;2023-02-01T02:12:49;437.9;;;-146.1;100.0
45864;BME280;31579;52.354;16.974;2023-02-01T02:13:53;445.3;;;-146.1;100.0
45864;BME280;31579;52.354;16.974;2023-02-01T02:14:55;451.9;;;-146.1;100.0
45864;BME280;31579;52.354;16.974;2023-02-01T02:18:08;485.8;;;-146.1;100.0
45864;BME280;31579;52.354;16.974;2023-02-01T02:29:54;467.4;;;-146.1;100.0
45864;BME280;31579;52.354;16.974;2023-02-01T02:31:57;469.0;;;-146.1;100.0
45864;BME280;31579;52.354;16.974;2023-02-01T02:34:03;470.5;;;-146.1;100.0
45864;BME280;31579;52.354;16.974;2023-02-01T02:35:06;471.5;;;-146.1;100.0
45864;BME280;31579;52.354;16.974;2023-02-01T02:38:18;470.3;;;-146.1;100.0
45864;BME280;31579;52.354;16.974;2023-02-01T02:43:32;475.1;;;-146.1;100.0
45864;BME280;31579;52.354;16.974;2023-02-01T02:46:40;473.9;;;-146.1;100.0
45864;BME280;31579;52.354;16.974;2023-02-01T02:48:44;475.0;;;-146.1;100.0
45864;BME280;31579;52.354;16.974;2023-02-01T02:49:49;475.4;;;-146.1;100.0
45864;BME280;31579;52.354;16.974;2023-02-01T02:50:49;476.6;;;-146.1;100.0
45864;BME280;31579;52.354;16.974;2023-02-01T02:51:54;477.3;;;-146.1;100.0
45864;BME280;31579;52.354;16.974;2023-02-01T02:52:57;477.7;;;-146.1;100.0
45864;BME280;31579;52.354;16.974;2023-02-01T02:54:59;479.9;;;-146.1;100.0
45864;BME280;31579;52.354;16.974;2023-02-01T02:56:03;478.7;;;-146.1;100.0
45864;BME280;31579;52.354;16.974;2023-02-01T02:57:06;479.1;;;-146.1;100.0
45864;BME280;31579;52.354;16.974;2023-02-01T02:58:09;402.8;;;-146.1;100.0
45864;BME280;31579;52.354;16.974;2023-02-01T02:59:13;444.3;;;-146.1;100.0
45864;BME280;31579;52.354;16.974;2023-02-01T03:00:16;455.3;;;-146.1;100.0
45864;BME280;31579;52.354;16.974;2023-02-01T03:01:18;456.8;;;-146.1;100.0
45864;BME280;31579;52.354;16.974;2023-02-01T03:02:21;462.1;;;-146.1;100.0
45864;BME280;31579;52.354;16.974;2023-02-01T03:03:24;465.4;;;-146.1;100.0
45864;BME280;31579;52.354;16.974;2023-02-01T03:04:28;467.2;;;-146.1;100.0
45864;BME280;31579;52.354;16.974;2023-02-01T03:05:33;468.4;;;-146.1;100.0
45864;BME280;31579;52.354;16.974;2023-02-01T03:06:34;466.6;;;-146.1;100.0
45864;BME280;31579;52.354;16.974;2023-02-01T03:08:40;469.2;;;-146.1;100.0
45864;BME280;31579;52.354;16.974;2023-02-01T03:09:26;376.6;;;-146.1;100.0
45864;BME280;31579;52.354;16.974;2023-02-01T03:11:30;412.5;;;-146.1;100.0
45864;BME280;31579;52.354;16.974;2023-02-01T03:12:33;418.6;;;-146.1;100.0
45864;BME280;31579;52.354;16.974;2023-02-01T03:13:37;423.0;;;-146.1;100.0
45864;BME280;31579;52.354;16.974;2023-02-01T03:14:39;424.3;;;-146.1;100.0
45864;BME280;31579;52.354;16.974;2023-02-01T03:16:47;439.8;;;-146.1;100.0
45864;BME280;31579;52.354;16.974;2023-02-01T03:17:49;449.1;;;-146.1;100.0
45864;BME280;31579;52.354;16.974;2023-02-01T03:19:55;451.6;;;-146.1;100.0
45864;BME280;31579;52.354;16.974;2023-02-01T03:20:58;454.5;;;-146.1;100.0
45864;BME280;31579;52.354;16.974;2023-02-01T03:23:05;401.9;;;-146.1;100.0
45864;BME280;31579;52.354;16.974;2023-02-01T03:25:12;427.6;;;-146.1;100.0
45864;BME280;31579;52.354;16.974;2023-02-01T03:26:14;433.7;;;-146.1;100.0
45864;BME280;31579;52.354;16.974;2023-02-01T03:27:21;347.6;;;-146.1;100.0
45864;BME280;31579;52.354;16.974;2023-02-01T03:28:20;470.1;;;-146.1;100.0
45864;BME280;31579;52.354;16.974;2023-02-01T03:29:30;455.2;;;-146.1;100.0
45864;BME280;31579;52.354;16.974;2023-02-01T03:30:26;455.3;;;-146.1;100.0
45864;BME280;31579;52.354;16.974;2023-02-01T03:31:29;455.0;;;-146.1;100.0
45864;BME280;31579;52.354;16.974;2023-02-01T03:32:32;455.7;;;-146.1;100.0
45864;BME280;31579;52.354;16.974;2023-02-01T03:33:35;456.4;;;-146.1;100.0
45864;BME280;31579;52.354;16.974;2023-02-01T03:34:38;453.4;;;-146.1;100.0
45864;BME280;31579;52.354;16.974;2023-02-01T03:36:48;454.3;;;-146.1;100.0
45864;BME280;31579;52.354;16.974;2023-02-01T03:37:47;454.6;;;-146.1;100.0
45864;BME280;31579;52.354;16.974;2023-02-01T03:39:57;455.3;;;-146.1;100.0
45864;BME280;31579;52.354;16.974;2023-02-01T03:41:59;457.8;;;-146.1;100.0
45864;BME280;31579;52.354;16.974;2023-02-01T03:43:01;488.4;;;-146.1;100.0
45864;BME280;31579;52.354;16.974;2023-02-01T03:45:11;479.1;;;-146.1;100.0
45864;BME280;31579;52.354;16.974;2023-02-01T03:46:12;476.6;;;-146.1;100.0
45864;BME280;31579;52.354;16.974;2023-02-01T03:47:15;473.3;;;-146.1;100.0
45864;BME280;31579;52.354;16.974;2023-02-01T03:48:17;473.1;;;-146.1;100.0
45864;BME280;31579;52.354;16.974;2023-02-01T03:50:24;432.7;;;-146.1;100.0
45864;BME280;31579;52.354;16.974;2023-02-01T03:51:27;437.7;;;-146.1;100.0
45864;BME280;31579;52.354;16.974;2023-02-01T03:52:33;447.4;;;-146.1;100.0
45864;BME280;31579;52.354;16.974;2023-02-01T03:53:33;453.6;;;-146.1;100.0
45864;BME280;31579;52.354;16.974;2023-02-01T03:54:36;457.7;;;-146.1;100.0
45864;BME280;31579;52.354;16.974;2023-02-01T03:55:39;461.7;;;-146.1;100.0
45864;BME280;31579;52.354;16.974;2023-02-01T03:56:43;466.8;;;-146.1;100.0
45864;BME280;31579;52.354;16.974;2023-02-01T03:57:48;466.1;;;-146.1;100.0
45864;BME280;31579;52.354;16.974;2023-02-01T03:58:50;381.8;;;-146.1;100.0
45864;BME280;31579;52.354;16.974;2023-02-01T03:59:54;426.6;;;-146.1;100.0
45864;BME280;31579;52.354;16.974;2023-02-01T04:00:57;441.5;;;-146.1;100.0
45864;BME280;31579;52.354;16.974;2023-02-01T04:01:59;446.5;;;-146.1;100.0
45864;BME280;31579;52.354;16.974;2023-02-01T04:03:01;486.2;;;-146.1;100.0
45864;BME280;31579;52.354;16.974;2023-02-01T04:04:04;479.6;;;-146.1;100.0
45864;BME280;31579;52.354;16.974;2023-02-01T04:05:07;478.2;;;-146.1;100.0
45864;BME280;31579;52.354;16.974;2023-02-01T04:06:10;475.4;;;-146.1;100.0
45864;BME280;31579;52.354;16.974;2023-02-01T04:07:13;474.9;;;-146.1;100.0
45864;BME280;31579;52.354;16.974;2023-02-01T04:08:17;472.4;;;-146.1;100.0
45864;BME280;31579;52.354;16.974;2023-02-01T04:09:19;470.5;;;-146.1;100.0
45864;BME280;31579;52.354;16.974;2023-02-01T04:10:22;469.4;;;-146.1;100.0
45864;BME280;31579;52.354;16.974;2023-02-01T04:11:25;470.5;;;-146.1;100.0
45864;BME280;31579;52.354;16.974;2023-02-01T04:12:29;472.6;;;-146.1;100.0
45864;BME280;31579;52.354;16.974;2023-02-01T04:13:32;471.0;;;-146.1;100.0
45864;BME280;31579;52.354;16.974;2023-02-01T04:14:35;470.2;;;-146.1;100.0
45864;BME280;31579;52.354;16.974;2023-02-01T04:15:38;469.5;;;-146.1;100.0
45864;BME280;31579;52.354;16.974;2023-02-01T04:16:41;471.2;;;-146.1;100.0
45864;BME280;31579;52.354;16.974;2023-02-01T04:17:44;472.6;;;-146.1;100.0
45864;BME280;31579;52.354;16.974;2023-02-01T04:18:47;471.2;;;-146.1;100.0
45864;BME280;31579;52.354;16.974;2023-02-01T04:19:50;469.9;;;-146.1;100.0
45864;BME280;31579;52.354;16.974;2023-02-01T04:20:54;392.9;;;-146.1;100.0
45864;BME280;31579;52.354;16.974;2023-02-01T04:21:57;436.7;;;-146.1;100.0
45864;BME280;31579;52.354;16.974;2023-02-01T04:23:00;445.8;;;-146.1;100.0
45864;BME280;31579;52.354;16.974;2023-02-01T04:24:03;450.5;;;-146.1;100.0
45864;BME280;31579;52.354;16.974;2023-02-01T04:25:06;453.2;;;-146.1;100.0
45864;BME280;31579;52.354;16.974;2023-02-01T04:26:09;455.1;;;-146.1;100.0
45864;BME280;31579;52.354;16.974;2023-02-01T04:27:12;456.6;;;-146.1;100.0
45864;BME280;31579;52.354;16.974;2023-02-01T04:28:15;461.4;;;-146.1;100.0
45864;BME280;31579;52.354;16.974;2023-02-01T04:29:19;371.5;;;-146.1;100.0
45864;BME280;31579;52.354;16.974;2023-02-01T04:30:22;413.8;;;-146.1;100.0
45864;BME280;31579;52.354;16.974;2023-02-01T04:31:25;429.2;;;-146.1;100.0
45864;BME280;31579;52.354;16.974;2023-02-01T04:32:29;441.7;;;-146.1;100.0
45864;BME280;31579;52.354;16.974;2023-02-01T04:33:32;447.8;;;-146.1;100.0
45864;BME280;31579;52.354;16.974;2023-02-01T04:34:35;449.0;;;-146.1;100.0
45864;BME280;31579;52.354;16.974;2023-02-01T04:35:38;453.0;;;-146.1;100.0
45864;BME280;31579;52.354;16.974;2023-02-01T04:36:41;455.8;;;-146.1;100.0
45864;BME280;31579;52.354;16.974;2023-02-01T04:37:44;458.1;;;-146.1;100.0
45864;BME280;31579;52.354;16.974;2023-02-01T04:38:50;460.0;;;-146.1;100.0
45864;BME280;31579;52.354;16.974;2023-02-01T04:39:50;462.3;;;-146.1;100.0
45864;BME280;31579;52.354;16.974;2023-02-01T04:40:53;464.5;;;-146.1;100.0
45864;BME280;31579;52.354;16.974;2023-02-01T04:41:56;466.3;;;-146.1;100.0
45864;BME280;31579;52.354;16.974;2023-02-01T04:43:00;468.2;;;-146.1;100.0
45864;BME280;31579;52.354;16.974;2023-02-01T04:44:01;490.0;;;-146.1;100.0
45864;BME280;31579;52.354;16.974;2023-02-01T04:45:04;484.6;;;-146.1;100.0
45864;BME280;31579;52.354;16.974;2023-02-01T04:46:07;483.1;;;-146.1;100.0
45864;BME280;31579;52.354;16.974;2023-02-01T04:47:10;482.2;;;-146.1;100.0
45864;BME280;31579;52.354;16.974;2023-02-01T04:48:13;481.2;;;-146.1;100.0
45864;BME280;31579;52.354;16.974;2023-02-01T04:49:16;480.6;;;-146.1;100.0
45864;BME280;31579;52.354;16.974;2023-02-01T04:50:18;493.1;;;-146.1;100.0
45864;BME280;31579;52.354;16.974;2023-02-01T04:51:21;488.8;;;-146.1;100.0
45864;BME280;31579;52.354;16.974;2023-02-01T04:52:24;487.5;;;-146.1;100.0
45864;BME280;31579;52.354;16.974;2023-02-01T04:53:28;486.7;;;-146.1;100.0
45864;BME280;31579;52.354;16.974;2023-02-01T04:54:31;486.0;;;-146.1;100.0
45864;BME280;31579;52.354;16.974;2023-02-01T04:55:34;485.1;;;-146.1;100.0
45864;BME280;31579;52.354;16.974;2023-02-01T04:56:37;484.4;;;-146.1;100.0
45864;BME280;31579;52.354;16.974;2023-02-01T04:57:41;484.3;;;-146.1;100.0
45864;BME280;31579;52.354;16.974;2023-02-01T04:58:44;484.0;;;-146.1;100.0
45864;BME280;31579;52.354;16.974;2023-02-01T04:59:47;483.4;;;-146.1;100.0
45864;BME280;31579;52.354;16.974;2023-02-01T05:00:50;482.1;;;-146.1;100.0
45864;BME280;31579;52.354;16.974;2023-02-01T05:02:07;366.6;;;-146.1;100.0
45864;BME280;31579;52.354;16.974;2023-02-01T05:03:10;372.2;;;-146.1;100.0
45864;BME280;31579;52.354;16.974;2023-02-01T05:04:13;403.4;;;-146.1;100.0
45864;BME280;31579;52.354;16.974;2023-02-01T05:05:16;427.4;;;-146.1;100.0
45864;BME280;31579;52.354;16.974;2023-02-01T05:06:19;438.6;;;-146.1;100.0
45864;BME280;31579;52.354;16.974;2023-02-01T05:07:22;449.8;;;-146.1;100.0
45864;BME280;31579;52.354;16.974;2023-02-01T05:08:26;457.6;;;-146.1;100.0
45864;BME280;31579;52.354;16.974;2023-02-01T05:09:28;462.8;;;-146.1;100.0
45864;BME280;31579;52.354;16.974;2023-02-01T05:10:31;467.3;;;-146.1;100.0
45864;BME280;31579;52.354;16.974;2023-02-01T05:11:34;468.5;;;-146.1;100.0
45864;BME280;31579;52.354;16.974;2023-02-01T05:12:38;471.9;;;-146.1;100.0
45864;BME280;31579;52.354;16.974;2023-02-01T05:13:41;473.0;;;-146.1;100.0
45864;BME280;31579;52.354;16.974;2023-02-01T05:14:44;472.5;;;-146.1;100.0
45864;BME280;31579;52.354;16.974;2023-02-01T05:15:59;407.0;;;-146.1;100.0
45864;BME280;31579;52.354;16.974;2023-02-01T05:17:03;414.3;;;-146.1;100.0
45864;BME280;31579;52.354;16.974;2023-02-01T05:18:06;434.9;;;-146.1;100.0
45864;BME280;31579;52.354;16.974;2023-02-01T05:19:09;444.5;;;-146.1;100.0
45864;BME280;31579;52.354;16.974;2023-02-01T05:20:12;450.8;;;-146.1;100.0
45864;BME280;31579;52.354;16.974;2023-02-01T05:21:15;458.3;;;-146.1;100.0
45864;BME280;31579;52.354;16.974;2023-02-01T05:22:18;461.2;;;-146.1;100.0
45864;BME280;31579;52.354;16.974;2023-02-01T05:23:21;464.9;;;-146.1;100.0
45864;BME280;31579;52.354;16.974;2023-02-01T05:24:24;465.1;;;-146.1;100.0
45864;BME280;31579;52.354;16.974;2023-02-01T05:25:28;466.8;;;-146.1;100.0
45864;BME280;31579;52.354;16.974;2023-02-01T05:26:31;467.2;;;-146.1;100.0
45864;BME280;31579;52.354;16.974;2023-02-01T05:27:35;467.2;;;-146.1;100.0
45864;BME280;31579;52.354;16.974;2023-02-01T05:28:37;468.2;;;-146.1;100.0
45864;BME280;31579;52.354;16.974;2023-02-01T05:29:41;470.1;;;-146.1;100.0
45864;BME280;31579;52.354;16.974;2023-02-01T05:30:44;471.9;;;-146.1;100.0
45864;BME280;31579;52.354;16.974;2023-02-01T05:31:48;471.6;;;-146.1;100.0
45864;BME280;31579;52.354;16.974;2023-02-01T05:32:51;471.3;;;-146.1;100.0
45864;BME280;31579;52.354;16.974;2023-02-01T05:33:54;471.1;;;-146.1;100.0
45864;BME280;31579;52.354;16.974;2023-02-01T05:34:56;470.6;;;-146.1;100.0
45864;BME280;31579;52.354;16.974;2023-02-01T05:35:59;470.5;;;-146.1;100.0
45864;BME280;31579;52.354;16.974;2023-02-01T05:37:02;470.4;;;-146.1;100.0
45864;BME280;31579;52.354;16.974;2023-02-01T05:38:05;472.1;;;-146.1;100.0
45864;BME280;31579;52.354;16.974;2023-02-01T05:39:08;471.8;;;-146.1;100.0
45864;BME280;31579;52.354;16.974;2023-02-01T05:40:12;471.6;;;-146.1;100.0
45864;BME280;31579;52.354;16.974;2023-02-01T05:41:14;471.8;;;-146.1;100.0
45864;BME280;31579;52.354;16.974;2023-02-01T05:42:17;471.2;;;-146.1;100.0
45864;BME280;31579;52.354;16.974;2023-02-01T05:43:21;471.1;;;-146.1;100.0
45864;BME280;31579;52.354;16.974;2023-02-01T05:44:23;471.3;;;-146.1;100.0
45864;BME280;31579;52.354;16.974;2023-02-01T05:45:26;471.2;;;-146.1;100.0
45864;BME280;31579;52.354;16.974;2023-02-01T05:46:29;471.4;;;-146.1;100.0
45864;BME280;31579;52.354;16.974;2023-02-01T05:47:32;471.0;;;-146.1;100.0
45864;BME280;31579;52.354;16.974;2023-02-01T05:48:35;470.8;;;-146.1;100.0
45864;BME280;31579;52.354;16.974;2023-02-01T05:49:38;471.2;;;-146.1;100.0
45864;BME280;31579;52.354;16.974;2023-02-01T05:50:42;471.0;;;-146.1;100.0
45864;BME280;31579;52.354;16.974;2023-02-01T05:51:45;471.2;;;-146.1;100.0
45864;BME280;31579;52.354;16.974;2023-02-01T05:52:47;471.4;;;-146.1;100.0
45864;BME280;31579;52.354;16.974;2023-02-01T05:53:50;471.2;;;-146.1;100.0
45864;BME280;31579;52.354;16.974;2023-02-01T05:54:53;470.9;;;-146.1;100.0
45864;BME280;31579;52.354;16.974;2023-02-01T05:55:56;486.2;;;-146.1;100.0
45864;BME280;31579;52.354;16.974;2023-02-01T05:57:00;482.0;;;-146.1;100.0
45864;BME280;31579;52.354;16.974;2023-02-01T05:58:03;474.2;;;-146.1;100.0
45864;BME280;31579;52.354;16.974;2023-02-01T05:59:05;472.7;;;-146.1;100.0
45864;BME280;31579;52.354;16.974;2023-02-01T06:00:09;471.4;;;-146.1;100.0
45864;BME280;31579;52.354;16.974;2023-02-01T06:01:11;470.2;;;-146.1;100.0
45864;BME280;31579;52.354;16.974;2023-02-01T06:02:15;468.9;;;-146.1;100.0
45864;BME280;31579;52.354;16.974;2023-02-01T06:03:17;468.3;;;-146.1;100.0
45864;BME280;31579;52.354;16.974;2023-02-01T06:04:20;467.8;;;-146.1;100.0
45864;BME280;31579;52.354;16.974;2023-02-01T06:05:23;467.5;;;-146.1;100.0
45864;BME280;31579;52.354;16.974;2023-02-01T06:06:26;467.0;;;-146.1;100.0
45864;BME280;31579;52.354;16.974;2023-02-01T06:07:29;466.5;;;-146.1;100.0
45864;BME280;31579;52.354;16.974;2023-02-01T06:08:32;467.4;;;-146.1;100.0
45864;BME280;31579;52.354;16.974;2023-02-01T06:09:36;467.3;;;-146.1;100.0
45864;BME280;31579;52.354;16.974;2023-02-01T06:10:38;468.6;;;-146.1;100.0
45864;BME280;31579;52.354;16.974;2023-02-01T06:11:41;467.6;;;-146.1;100.0
45864;BME280;31579;52.354;16.974;2023-02-01T06:12:45;468.8;;;-146.1;100.0
45864;BME280;31579;52.354;16.974;2023-02-01T06:14:02;323.4;;;-146.1;100.0
45864;BME280;31579;52.354;16.974;2023-02-01T06:15:05;359.8;;;-146.1;100.0
45864;BME280;31579;52.354;16.974;2023-02-01T06:16:08;395.7;;;-146.1;100.0
45864;BME280;31579;52.354;16.974;2023-02-01T06:17:11;414.3;;;-146.1;100.0
45864;BME280;31579;52.354;16.974;2023-02-01T06:18:14;426.4;;;-146.1;100.0
45864;BME280;31579;52.354;16.974;2023-02-01T06:19:17;436.3;;;-146.1;100.0
45864;BME280;31579;52.354;16.974;2023-02-01T06:20:20;446.0;;;-146.1;100.0
45864;BME280;31579;52.354;16.974;2023-02-01T06:21:23;452.3;;;-146.1;100.0